Time;durP1;ratioP1;P1;durP2;ratioP2;P2;SDS_P1;SDS_P2;PMS_P1;PMS_P2;Temp;Humidity;BMP_temperature;BMP_pressure;BME280_temperature;BME280_humidity;BME280_pressure;Samples;Min_cycle;Max_cycle;Signal;HPM_P1;HPM_P2
2024/01/12 05:33:03;;;;;;;;;30.25;24.00;;;;;12.89;42.31;102820.38;5014213;28;45588;-72
2024/01/12 05:35:29;;;;;;;;;29.75;22.75;;;;;12.90;42.60;102815.88;5014057;28;45412;-73
2024/01/12 05:37:55;;;;;;;;;22.25;22.25;;;;;12.94;42.48;102811.28;5014001;28;51715;-72
2024/01/12 05:40:20;;;;;;;;;25.75;23.75;;;;;12.91;42.65;102814.97;5011034;28;45406;-73
2024/01/12 05:42:45;;;;;;;;;20.75;19.75;;;;;12.91;42.58;102803.31;5014810;28;45308;-72
2024/01/12 05:45:11;;;;;;;;;24.00;20.50;;;;;12.91;42.44;102812.25;5014664;28;45282;-72
2024/01/12 05:47:36;;;;;;;;;30.25;23.25;;;;;12.97;42.25;102814.81;5014762;28;46218;-72
2024/01/12 05:50:02;;;;;;;;;28.50;23.50;;;;;12.98;42.56;102818.38;5014596;28;46127;-73
2024/01/12 05:52:27;;;;;;;;;24.25;24.25;;;;;13.00;42.32;102805.78;5014569;28;45386;-73
2024/01/12 05:54:55;;;;;;;;;28.75;23.00;;;;;12.82;42.47;102791.81;5013919;28;45969;-74
2024/01/12 05:57:20;;;;;;;;;24.75;22.50;;;;;12.98;42.48;102815.69;5014510;28;46348;-73
2024/01/12 05:59:45;;;;;;;;;36.00;29.00;;;;;13.02;42.22;102820.06;5021745;28;45498;-72
2024/01/12 06:02:14;;;;;;;;;27.25;24.00;;;;;13.01;42.19;102816.53;5014184;28;54783;-73
2024/01/12 06:04:39;;;;;;;;;30.50;22.50;;;;;13.07;42.37;102820.88;5014526;28;45348;-72
2024/01/12 06:07:04;;;;;;;;;24.75;22.25;;;;;13.07;41.93;102820.88;5014537;28;45410;-73
2024/01/12 06:09:30;;;;;;;;;33.00;28.00;;;;;13.10;42.42;102818.13;5014237;28;45440;-75
2024/01/12 06:11:55;;;;;;;;;30.25;25.00;;;;;13.09;42.32;102819.03;5014797;28;45245;-73
2024/01/12 06:14:20;;;;;;;;;26.00;23.25;;;;;13.12;42.21;102827.91;5013886;28;60072;-73
2024/01/12 06:16:46;;;;;;;;;33.50;25.50;;;;;13.13;41.89;102823.41;5014500;28;45368;-72
2024/01/12 06:19:12;;;;;;;;;29.75;25.50;;;;;13.10;41.90;102824.34;5014181;28;45391;-73
2024/01/12 06:21:38;;;;;;;;;21.00;21.00;;;;;13.12;42.35;102833.31;4997184;28;45403;-74
2024/01/12 06:24:03;;;;;;;;;27.25;21.50;;;;;13.08;42.09;102822.66;5014268;28;45501;-72
2024/01/12 06:26:29;;;;;;;;;22.50;21.25;;;;;13.14;41.96;102830.59;5013839;28;46300;-72
2024/01/12 06:28:54;;;;;;;;;21.75;20.25;;;;;13.07;41.66;102810.09;5015199;28;45398;-75
2024/01/12 06:31:19;;;;;;;;;22.25;16.00;;;;;13.15;42.09;102838.66;5022471;28;45528;-75
2024/01/12 06:33:44;;;;;;;;;30.25;22.50;;;;;13.18;41.85;102833.19;5034802;28;56631;-77
2024/01/12 06:36:10;;;;;;;;;24.75;21.25;;;;;13.20;41.89;102834.03;5035010;28;52122;-77
2024/01/12 06:38:35;;;;;;;;;27.00;21.50;;;;;13.12;42.15;102821.63;5035191;28;45400;-78
2024/01/12 06:41:02;;;;;;;;;28.00;23.00;;;;;13.20;42.03;102830.47;5034375;28;45380;-80
2024/01/12 06:43:27;;;;;;;;;22.50;21.50;;;;;13.11;42.10;102814.47;5034298;28;45521;-78
2024/01/12 06:45:53;;;;;;;;;21.75;20.00;;;;;13.08;41.85;102806.50;5032950;28;48322;-80
2024/01/12 06:48:18;;;;;;;;;21.00;19.75;;;;;13.22;41.92;102845.66;5034051;28;45585;-76
2024/01/12 06:50:43;;;;;;;;;32.00;29.25;;;;;13.20;41.95;102828.66;5034250;28;46276;-75
2024/01/12 06:53:09;;;;;;;;;28.50;22.00;;;;;13.23;41.72;102825.00;5034131;28;45209;-77
2024/01/12 06:55:36;;;;;;;;;29.75;25.00;;;;;13.24;41.93;102822.28;5034101;28;45264;-77
2024/01/12 06:58:01;;;;;;;;;25.50;24.50;;;;;13.29;42.02;102824.84;5033420;28;45747;-78
2024/01/12 07:00:26;;;;;;;;;23.25;22.50;;;;;13.30;41.85;102832.00;5043366;28;45516;-77
2024/01/12 07:02:52;;;;;;;;;23.25;20.50;;;;;13.34;41.61;102835.53;5033407;28;45296;-75
2024/01/12 07:05:17;;;;;;;;;28.75;23.50;;;;;13.36;41.69;102830.97;5033672;28;50632;-76
2024/01/12 07:07:43;;;;;;;;;27.75;24.00;;;;;13.30;41.39;102823.03;5033819;28;45332;-76
2024/01/12 07:10:11;;;;;;;;;26.00;22.25;;;;;13.31;41.20;102830.22;5033844;28;45479;-77
2024/01/12 07:12:37;;;;;;;;;25.25;20.25;;;;;13.33;41.64;102839.16;5033772;28;45316;-78
2024/01/12 07:15:02;;;;;;;;;21.50;19.50;;;;;13.23;41.49;102825.91;5034188;28;45321;-78
2024/01/12 07:17:27;;;;;;;;;16.00;12.25;;;;;13.29;41.45;102830.25;5034156;28;45330;-78
2024/01/12 07:19:53;;;;;;;;;25.50;19.50;;;;;13.37;41.22;102836.34;5035198;28;45367;-77
2024/01/12 07:22:18;;;;;;;;;19.25;17.25;;;;;13.37;41.48;102840.81;5033849;28;45371;-80
2024/01/12 07:24:44;;;;;;;;;25.25;20.25;;;;;13.33;40.84;102836.47;5034762;28;49625;-80
2024/01/12 07:27:09;;;;;;;;;25.75;20.75;;;;;13.39;41.29;102839.88;5035430;28;44729;-78
2024/01/12 07:29:34;;;;;;;;;24.50;20.75;;;;;13.35;41.28;102848.97;5032432;28;45168;-75
2024/01/12 07:32:00;;;;;;;;;26.50;22.25;;;;;13.32;41.39;102851.72;5033312;28;45408;-76
2024/01/12 07:34:25;;;;;;;;;25.25;22.25;;;;;13.33;41.60;102833.75;5035551;28;46139;-79
2024/01/12 07:36:50;;;;;;;;;24.75;22.50;;;;;13.36;41.17;102848.03;5036614;28;51736;-78
2024/01/12 07:39:16;;;;;;;;;27.75;21.00;;;;;13.26;41.67;102830.34;5036841;28;45348;-77
2024/01/12 07:41:44;;;;;;;;;29.75;23.25;;;;;13.21;41.60;102821.47;5036370;28;45490;-80
2024/01/12 07:44:11;;;;;;;;;32.00;26.00;;;;;13.24;41.56;102830.38;5005740;28;47302;-76
2024/01/12 07:46:36;;;;;;;;;21.50;18.25;;;;;13.36;41.55;102848.03;5037504;28;45498;-81
2024/01/12 07:49:02;;;;;;;;;26.50;22.75;;;;;13.32;41.61;102854.44;5030591;28;45488;-80
2024/01/12 07:51:28;;;;;;;;;33.25;29.00;;;;;13.27;41.62;102829.38;5030074;28;45451;-80
2024/01/12 07:53:53;;;;;;;;;24.50;24.25;;;;;13.25;41.28;102832.13;5040307;28;46609;-82
2024/01/12 07:56:18;;;;;;;;;26.75;22.50;;;;;13.38;41.81;102854.28;5039052;28;45319;-81
2024/01/12 07:58:44;;;;;;;;;25.75;23.00;;;;;13.39;41.27;102858.75;5026859;28;45905;-79
2024/01/12 08:01:13;;;;;;;;;22.00;19.25;;;;;13.37;41.24;102848.91;5022460;28;45501;-80
2024/01/12 08:03:40;;;;;;;;;25.50;22.25;;;;;13.39;41.55;102844.38;5026048;28;45644;-79
2024/01/12 08:06:05;;;;;;;;;29.75;26.50;;;;;13.29;41.66;102826.66;5025674;28;45403;-78
2024/01/12 08:08:31;;;;;;;;;26.50;20.00;;;;;13.30;41.45;102852.69;5024596;28;45395;-79
2024/01/12 08:10:57;;;;;;;;;18.00;17.75;;;;;13.29;41.49;102845.53;5034608;28;45498;-80
2024/01/12 08:13:25;;;;;;;;;26.25;22.00;;;;;13.34;41.45;102844.50;5016065;28;48625;-78
2024/01/12 08:15:50;;;;;;;;;22.75;17.75;;;;;13.23;41.01;102825.00;5021876;28;45382;-80
2024/01/12 08:18:16;;;;;;;;;27.25;27.25;;;;;13.39;41.17;102849.78;5029166;28;45669;-83
2024/01/12 08:20:42;;;;;;;;;25.75;23.50;;;;;13.25;41.11;102824.06;5022027;28;45436;-78
2024/01/12 08:23:07;;;;;;;;;23.00;21.25;;;;;13.36;40.89;102833.66;5034392;28;45630;-78
2024/01/12 08:25:33;;;;;;;;;22.00;21.00;;;;;13.45;40.98;102834.34;5047814;28;45382;-79
2024/01/12 08:27:58;;;;;;;;;22.50;20.75;;;;;13.38;40.63;102819.25;5030525;28;45311;-79
2024/01/12 08:30:23;;;;;;;;;23.75;22.00;;;;;13.36;40.63;102826.47;5050942;28;45469;-80
2024/01/12 08:32:49;;;;;;;;;24.50;19.75;;;;;13.22;40.98;102816.03;5023591;28;45818;-79
2024/01/12 08:35:15;;;;;;;;;22.00;22.00;;;;;13.25;40.90;102825.88;5014800;28;45467;-80
2024/01/12 08:37:40;;;;;;;;;25.00;19.75;;;;;13.37;40.90;102848.91;5014668;28;45586;-80
2024/01/12 08:40:06;;;;;;;;;27.50;20.75;;;;;13.23;40.81;102833.97;5011135;28;45489;-79
2024/01/12 08:42:32;;;;;;;;;22.25;18.25;;;;;13.22;40.60;102834.91;5014986;28;46213;-79
2024/01/12 08:44:57;;;;;;;;;22.25;16.25;;;;;13.13;40.87;102828.81;5013979;28;45724;-79
2024/01/12 08:47:22;;;;;;;;;23.50;20.50;;;;;13.00;40.97;102811.16;5015070;28;45938;-78
2024/01/12 08:49:48;;;;;;;;;28.75;20.75;;;;;13.12;41.63;102818.94;4996948;28;49134;-79
2024/01/12 08:52:13;;;;;;;;;16.50;16.50;;;;;13.29;40.95;102851.78;5015637;28;46389;-81
2024/01/12 08:54:38;;;;;;;;;23.00;20.00;;;;;13.18;40.96;102827.78;5015234;28;45441;-79
2024/01/12 08:57:04;;;;;;;;;29.50;21.75;;;;;13.34;41.00;102849.91;4997600;28;45310;-80
2024/01/12 08:59:29;;;;;;;;;21.00;18.00;;;;;13.33;41.04;102839.16;5005986;28;46468;-79
2024/01/12 09:01:56;;;;;;;;;28.00;22.50;;;;;13.34;41.04;102841.81;5015387;28;45992;-81
2024/01/12 09:04:23;;;;;;;;;30.00;26.00;;;;;13.28;40.91;102841.94;5015737;28;45368;-82
2024/01/12 09:06:48;;;;;;;;;33.00;27.75;;;;;13.13;41.07;102824.34;5017853;28;45361;-80
2024/01/12 09:09:14;;;;;;;;;24.75;24.75;;;;;13.31;40.97;102844.56;5016945;28;45582;-80
2024/01/12 09:11:39;;;;;;;;;29.75;25.25;;;;;13.42;41.24;102857.78;5000255;28;47314;-79
2024/01/12 09:14:05;;;;;;;;;24.25;22.25;;;;;13.33;40.91;102855.31;5017893;28;45412;-81
2024/01/12 09:16:30;;;;;;;;;23.00;21.00;;;;;13.16;40.86;102837.75;5013123;28;45542;-82
2024/01/12 09:18:56;;;;;;;;;24.25;22.75;;;;;13.23;41.00;102836.66;4998310;28;47027;-81
2024/01/12 09:21:23;;;;;;;;;29.25;27.75;;;;;13.14;40.86;102830.59;5016094;28;45668;-80
2024/01/12 09:23:48;;;;;;;;;28.50;26.25;;;;;13.25;41.33;102848.31;5014851;28;45447;-80
2024/01/12 09:26:14;;;;;;;;;33.25;29.75;;;;;13.24;40.81;102846.53;5014589;28;45447;-79
2024/01/12 09:28:40;;;;;;;;;28.75;27.00;;;;;13.45;40.93;102876.56;5014932;28;45331;-80
2024/01/12 09:31:06;;;;;;;;;28.25;23.50;;;;;13.44;41.06;102867.59;5023581;28;45431;-79
2024/01/12 09:33:31;;;;;;;;;33.50;28.00;;;;;13.36;40.69;102858.81;5037823;28;45309;-78
2024/01/12 09:35:57;;;;;;;;;34.25;28.75;;;;;13.29;41.00;102851.78;5034525;28;45422;-79
2024/01/12 09:38:22;;;;;;;;;29.75;26.75;;;;;13.16;40.57;102834.16;5016437;28;45284;-82
2024/01/12 09:40:49;;;;;;;;;38.75;34.75;;;;;13.31;40.79;102859.84;5016779;28;46022;-79
2024/01/12 09:43:15;;;;;;;;;33.00;29.75;;;;;13.36;41.01;102882.16;5016619;28;45340;-80
2024/01/12 09:45:44;;;;;;;;;31.25;31.25;;;;;13.32;41.19;102884.06;5034716;28;45522;-81
2024/01/12 09:48:10;;;;;;;;;33.25;26.25;;;;;13.39;40.96;102885.69;5034361;28;45375;-81
2024/01/12 09:50:35;;;;;;;;;36.50;27.25;;;;;13.38;41.01;102889.28;5033844;28;45457;-81
2024/01/12 09:53:02;;;;;;;;;46.75;36.25;;;;;13.10;41.37;102845.06;5034314;28;45256;-82
2024/01/12 09:55:27;;;;;;;;;37.25;31.50;;;;;13.39;40.88;102900.97;5029502;28;46176;-82
2024/01/12 09:57:52;;;;;;;;;37.50;34.25;;;;;13.31;40.67;102884.09;5035823;28;45351;-81
2024/01/12 10:00:21;;;;;;;;;41.25;34.75;;;;;13.31;40.83;102884.97;5049265;28;46516;-81
2024/01/12 10:02:47;;;;;;;;;40.25;35.00;;;;;13.10;40.69;102853.97;5037505;28;45350;-81
2024/01/12 10:05:12;;;;;;;;;18.75;14.75;;;;;13.22;40.42;102869.03;5031166;28;45401;-82
2024/01/12 10:07:38;;;;;;;;;31.75;27.25;;;;;13.47;40.50;102905.25;5030060;28;45454;-80
2024/01/12 10:10:05;;;;;;;;;35.25;34.50;;;;;13.15;40.03;102852.13;5024836;28;47328;-80
2024/01/12 10:12:31;;;;;;;;;41.25;33.25;;;;;13.21;40.40;102861.88;5027788;28;45398;-81
2024/01/12 10:15:03;;;;;;;;;42.00;33.50;;;;;13.46;40.30;102911.56;5043954;28;45369;-83
2024/01/12 10:17:30;;;;;;;;;34.25;34.25;;;;;13.46;40.09;102913.38;5034793;28;46346;-78
2024/01/12 10:19:56;;;;;;;;;42.00;36.00;;;;;13.31;40.17;102893.06;5033258;28;45444;-80
2024/01/12 10:22:21;;;;;;;;;36.75;31.25;;;;;13.37;40.07;102900.09;5038360;28;45449;-79
2024/01/12 10:24:56;;;;;;;;;32.00;27.25;;;;;13.19;40.05;102880.75;5033728;28;45348;-80
2024/01/12 10:27:21;;;;;;;;;42.25;34.75;;;;;13.33;40.17;102910.09;5033936;28;45470;-79
2024/01/12 10:29:46;;;;;;;;;36.00;34.00;;;;;13.27;40.00;102891.34;5033878;28;45417;-80
2024/01/12 10:32:12;;;;;;;;;39.50;32.00;;;;;13.32;39.98;102902.03;5018910;28;45339;-80
2024/01/12 10:34:39;;;;;;;;;40.75;35.00;;;;;13.32;39.96;102902.91;5014720;28;45254;-80
2024/01/12 10:37:07;;;;;;;;;45.50;39.50;;;;;13.16;39.73;102869.19;5000620;28;46738;-81
2024/01/12 10:39:35;;;;;;;;;39.75;36.50;;;;;12.97;39.96;102847.13;5021530;28;45310;-79
2024/01/12 10:42:01;;;;;;;;;48.00;39.75;;;;;13.40;40.35;102916.22;4996771;28;45458;-79
2024/01/12 10:44:30;;;;;;;;;40.25;36.50;;;;;13.42;40.02;102914.38;5012294;28;45552;-77
2024/01/12 10:47:04;;;;;;;;;50.75;38.75;;;;;13.44;39.95;102916.09;5008757;28;45300;-75
2024/01/12 10:49:35;;;;;;;;;48.75;38.75;;;;;13.39;39.80;102909.94;5013252;28;45674;-76
2024/01/12 10:52:05;;;;;;;;;29.25;22.25;;;;;13.36;39.61;102907.28;5013866;28;45403;-76
2024/01/12 10:54:38;;;;;;;;;41.75;37.75;;;;;13.43;39.96;102906.25;5009503;28;45661;-77
2024/01/12 10:57:04;;;;;;;;;41.00;36.25;;;;;13.24;39.46;102880.66;5007501;28;46093;-78
2024/01/12 10:59:31;;;;;;;;;49.00;38.75;;;;;13.37;39.86;102894.72;4994627;28;47172;-77
2024/01/12 11:01:57;;;;;;;;;49.50;40.25;;;;;13.34;39.35;102889.41;5013471;28;45423;-78
2024/01/12 11:04:23;;;;;;;;;43.00;36.00;;;;;13.36;39.52;102895.63;5014219;28;45418;-75
2024/01/12 11:06:55;;;;;;;;;42.25;39.50;;;;;13.26;39.50;102865.34;5023634;28;45294;-76
2024/01/12 11:09:22;;;;;;;;;44.25;39.50;;;;;13.40;39.49;102895.53;5017242;28;46282;-77
2024/01/12 11:11:56;;;;;;;;;36.75;35.25;;;;;13.43;39.30;102899.97;5009991;28;45448;-76
2024/01/12 11:14:23;;;;;;;;;47.00;38.00;;;;;13.41;39.10;102891.94;5010940;28;45422;-75
2024/01/12 11:16:50;;;;;;;;;40.00;34.00;;;;;13.34;39.05;102901.09;5017094;28;46099;-78
2024/01/12 11:19:18;;;;;;;;;45.50;39.25;;;;;13.31;39.21;102898.44;5010187;28;46147;-76
2024/01/12 11:21:43;;;;;;;;;37.50;35.75;;;;;13.20;39.57;102874.44;5009601;28;45458;-78
2024/01/12 11:24:11;;;;;;;;;42.50;35.25;;;;;13.32;39.63;102900.22;5015811;28;45383;-75
2024/01/12 11:26:37;;;;;;;;;43.25;37.25;;;;;13.25;39.05;102882.44;5016523;28;46038;-77
2024/01/12 11:29:02;;;;;;;;;39.00;34.50;;;;;13.34;39.09;102882.22;5015884;28;45415;-78
2024/01/12 11:31:27;;;;;;;;;35.00;31.25;;;;;13.44;38.58;102867.59;5017171;28;45708;-76
2024/01/12 11:33:58;;;;;;;;;25.75;25.00;;;;;13.52;38.43;102870.13;5033465;28;45205;-75
2024/01/12 11:36:30;;;;;;;;;39.25;30.25;;;;;13.56;38.22;102864.59;5031915;28;45541;-74
2024/01/12 11:39:03;;;;;;;;;33.50;30.25;;;;;13.54;38.63;102852.97;5031168;28;45432;-76
2024/01/12 11:41:30;;;;;;;;;26.75;26.00;;;;;13.62;38.15;102858.16;5028857;28;45427;-79
2024/01/12 11:43:56;;;;;;;;;30.25;25.00;;;;;13.68;38.16;102859.84;5035261;28;45516;-74
2024/01/12 11:46:26;;;;;;;;;33.00;30.00;;;;;13.73;38.34;102853.41;5027387;28;45390;-78
2024/01/12 11:48:51;;;;;;;;;32.50;26.50;;;;;13.81;38.33;102855.91;5036780;28;45660;-76
2024/01/12 11:51:27;;;;;;;;;37.75;34.25;;;;;13.85;37.70;102858.50;5034033;28;45382;-72
2024/01/12 11:53:53;;;;;;;;;30.75;28.25;;;;;13.88;37.96;102855.69;5041792;28;45451;-80
2024/01/12 11:56:22;;;;;;;;;33.25;25.75;;;;;13.78;37.91;102840.69;5035393;28;45455;-77
2024/01/12 11:58:48;;;;;;;;;23.25;23.25;;;;;13.84;37.43;102823.47;5039200;28;46438;-74
2024/01/12 12:01:13;;;;;;;;;31.25;29.00;;;;;13.91;37.62;102836.75;5042367;28;45391;-77
2024/01/12 12:03:39;;;;;;;;;28.00;24.25;;;;;13.99;37.60;102840.13;5030721;28;45489;-78
2024/01/12 12:06:09;;;;;;;;;28.25;27.25;;;;;14.08;37.66;102843.50;5037317;28;45640;-77
2024/01/12 12:08:35;;;;;;;;;38.75;33.00;;;;;14.13;37.53;102839.75;5041838;28;45354;-77
2024/01/12 12:11:00;;;;;;;;;28.75;25.75;;;;;13.98;37.18;102819.47;5037758;28;45300;-78
2024/01/12 12:13:25;;;;;;;;;26.25;24.00;;;;;14.10;37.32;102838.97;5038543;28;45444;-80
2024/01/12 12:15:51;;;;;;;;;30.25;24.00;;;;;14.11;37.50;102835.34;5043459;28;45533;-78
2024/01/12 12:18:18;;;;;;;;;13.00;11.75;;;;;13.91;37.44;102799.00;5025300;28;48342;-79
2024/01/12 12:20:43;;;;;;;;;30.75;30.00;;;;;14.00;37.40;102828.41;5038269;28;45188;-79
2024/01/12 12:23:09;;;;;;;;;26.75;26.25;;;;;14.06;37.47;102824.66;5037495;28;45449;-75
2024/01/12 12:25:34;;;;;;;;;29.75;27.75;;;;;14.06;37.73;102807.59;5032803;28;45465;-77
2024/01/12 12:27:59;;;;;;;;;42.25;27.75;;;;;14.23;37.38;102827.78;5045883;28;45930;-74
2024/01/12 12:30:28;;;;;;;;;34.00;32.00;;;;;14.32;37.14;102823.94;5017312;28;45693;-77
2024/01/12 12:32:53;;;;;;;;;30.25;26.50;;;;;14.31;37.83;102819.47;5035494;28;45347;-76
2024/01/12 12:35:23;;;;;;;;;36.25;30.25;;;;;14.38;37.39;102826.44;5035333;28;52839;-75
2024/01/12 12:37:51;;;;;;;;;29.50;22.75;;;;;14.36;37.12;102833.72;5036536;28;47102;-81
2024/01/12 12:40:17;;;;;;;;;29.50;29.50;;;;;14.18;36.80;102800.06;5016764;28;45746;-79
2024/01/12 12:42:44;;;;;;;;;24.75;24.75;;;;;14.29;37.11;102818.66;5036252;28;45504;-80
2024/01/12 12:45:10;;;;;;;;;33.00;30.00;;;;;14.30;36.90;102823.97;5035497;28;45426;-78
2024/01/12 12:47:36;;;;;;;;;33.75;30.50;;;;;14.33;37.23;102813.09;5036132;28;46218;-79
2024/01/12 12:50:04;;;;;;;;;36.25;32.75;;;;;14.10;37.05;102769.72;5033277;28;46303;-79
2024/01/12 12:52:30;;;;;;;;;34.00;31.75;;;;;14.15;37.36;102780.38;5035725;28;45442;-79
2024/01/12 12:54:55;;;;;;;;;49.25;34.00;;;;;14.21;37.41;102793.66;5034553;28;45364;-78
2024/01/12 12:57:20;;;;;;;;;25.50;25.50;;;;;14.19;37.21;102790.16;5035228;28;46043;-78
2024/01/12 12:59:46;;;;;;;;;34.25;29.75;;;;;14.23;37.19;102792.72;5045340;28;45335;-76
2024/01/12 13:02:12;;;;;;;;;43.75;31.25;;;;;14.20;37.14;102790.13;5035137;28;45752;-79
2024/01/12 13:04:37;;;;;;;;;43.75;36.00;;;;;14.25;37.25;102803.47;5035367;28;45555;-75
2024/01/12 13:07:03;;;;;;;;;32.50;29.50;;;;;14.14;37.32;102783.97;5035004;28;46171;-78
2024/01/12 13:09:29;;;;;;;;;31.00;29.25;;;;;14.17;37.30;102782.09;5035262;28;45421;-77
2024/01/12 13:11:55;;;;;;;;;37.75;32.50;;;;;14.20;37.10;102786.53;5019403;28;45369;-78
2024/01/12 13:14:22;;;;;;;;;30.75;24.50;;;;;14.00;37.70;102743.94;5023244;28;47204;-77
2024/01/12 13:16:49;;;;;;;;;32.75;30.25;;;;;14.23;37.35;102778.31;5040894;28;45425;-78
2024/01/12 13:19:14;;;;;;;;;36.00;29.75;;;;;14.21;37.48;102777.47;5018945;28;45602;-78
2024/01/12 13:21:40;;;;;;;;;32.50;29.50;;;;;14.22;37.41;102780.13;5039305;28;46038;-79
2024/01/12 13:24:08;;;;;;;;;40.75;34.25;;;;;14.20;37.33;102779.31;5038936;28;45335;-76
2024/01/12 13:26:33;;;;;;;;;35.75;31.50;;;;;14.16;37.50;102764.13;5035258;28;45499;-77
2024/01/12 13:29:00;;;;;;;;;38.00;33.75;;;;;14.12;37.65;102753.50;5035302;28;45450;-77
2024/01/12 13:31:26;;;;;;;;;37.00;34.50;;;;;14.09;37.66;102751.75;5034593;28;45425;-78
2024/01/12 13:33:51;;;;;;;;;39.25;32.25;;;;;14.19;37.66;102773.97;5035556;28;46272;-78
2024/01/12 13:36:17;;;;;;;;;35.50;32.25;;;;;13.99;37.32;102734.06;5035683;28;48014;-78
2024/01/12 13:38:42;;;;;;;;;34.50;32.25;;;;;13.96;37.45;102715.25;5017913;28;45277;-78
2024/01/12 13:41:11;;;;;;;;;38.00;33.25;;;;;13.96;37.68;102718.84;5023486;28;45433;-81
2024/01/12 13:43:36;;;;;;;;;26.50;24.00;;;;;14.18;37.70;102751.50;5035709;28;45466;-83
2024/01/12 13:46:05;;;;;;;;;38.75;33.75;;;;;14.17;37.47;102763.22;5034479;28;46441;-79
2024/01/12 13:48:31;;;;;;;;;36.50;31.25;;;;;14.14;37.50;102760.59;5030367;28;45311;-78
2024/01/12 13:50:57;;;;;;;;;32.75;29.75;;;;;14.13;37.63;102760.63;5034123;28;45393;-78
2024/01/12 13:53:22;;;;;;;;;37.50;34.75;;;;;14.11;37.60;102757.13;5034620;28;45486;-77
2024/01/12 13:55:47;;;;;;;;;36.75;31.75;;;;;14.18;37.70;102759.59;5033920;28;46208;-78
2024/01/12 13:58:13;;;;;;;;;45.00;35.50;;;;;14.14;37.63;102760.59;5036295;28;45463;-79
2024/01/12 14:00:38;;;;;;;;;35.00;31.75;;;;;14.12;37.65;102764.28;5041026;28;45414;-78
2024/01/12 14:03:05;;;;;;;;;38.00;34.00;;;;;14.15;37.72;102761.47;5034967;28;45541;-79
2024/01/12 14:05:31;;;;;;;;;38.75;36.75;;;;;14.05;37.95;102762.66;5038838;28;45441;-77
2024/01/12 14:07:56;;;;;;;;;42.25;35.25;;;;;14.01;37.88;102749.28;5036775;28;45433;-78
2024/01/12 14:10:22;;;;;;;;;42.75;33.75;;;;;14.06;38.09;102767.13;5034930;28;45382;-77
2024/01/12 14:12:47;;;;;;;;;40.00;32.25;;;;;14.08;37.63;102778.78;5016171;28;45533;-78
2024/01/12 14:15:13;;;;;;;;;46.75;37.00;;;;;13.87;37.71;102740.69;5018332;28;48269;-78
2024/01/12 14:17:38;;;;;;;;;39.00;37.25;;;;;13.92;38.02;102762.13;5034247;28;45296;-77
2024/01/12 14:20:04;;;;;;;;;45.25;37.00;;;;;13.88;37.98;102768.53;5034531;28;45254;-77
2024/01/12 14:22:29;;;;;;;;;40.00;35.50;;;;;13.78;37.87;102757.09;5034704;28;46451;-79
2024/01/12 14:24:55;;;;;;;;;40.75;34.25;;;;;13.78;37.97;102754.41;5033709;28;46061;-80
2024/01/12 14:27:20;;;;;;;;;45.75;40.75;;;;;13.91;38.05;102771.16;5034424;28;45434;-77
2024/01/12 14:29:46;;;;;;;;;44.00;38.00;;;;;13.74;38.45;102750.03;5034496;28;45414;-80
2024/01/12 14:32:11;;;;;;;;;50.50;38.50;;;;;13.87;38.42;102766.75;5034282;28;45240;-79
2024/01/12 14:34:38;;;;;;;;;44.25;36.75;;;;;13.72;38.45;102748.31;5038014;28;45539;-78
2024/01/12 14:37:04;;;;;;;;;46.25;39.00;;;;;13.81;38.43;102759.72;5037933;28;45471;-79
2024/01/12 14:39:30;;;;;;;;;52.25;40.00;;;;;13.75;38.62;102754.50;5035440;28;45368;-77
2024/01/12 14:41:55;;;;;;;;;44.00;37.75;;;;;13.66;38.67;102740.41;5034397;28;45436;-81
2024/01/12 14:44:21;;;;;;;;;37.50;31.25;;;;;13.44;38.62;102705.91;5039852;28;45974;-79
2024/01/12 14:46:46;;;;;;;;;54.75;40.25;;;;;13.78;38.71;102767.03;5022737;28;45543;-78
2024/01/12 14:49:13;;;;;;;;;51.50;41.50;;;;;13.42;38.34;102705.09;5021773;28;45499;-77
2024/01/12 14:51:38;;;;;;;;;54.25;44.25;;;;;13.68;38.63;102743.94;5038605;28;45364;-80
2024/01/12 14:54:05;;;;;;;;;55.75;44.75;;;;;13.83;38.83;102771.38;5020475;28;47042;-77
2024/01/12 14:56:31;;;;;;;;;53.00;41.00;;;;;13.85;38.65;102769.53;5038884;28;45371;-77
2024/01/12 14:58:56;;;;;;;;;55.75;44.50;;;;;13.67;38.70;102755.66;5029246;28;45313;-78
2024/01/12 15:01:22;;;;;;;;;44.50;39.50;;;;;13.68;38.58;102773.59;5022223;28;46590;-79
2024/01/12 15:03:48;;;;;;;;;58.50;46.00;;;;;13.62;38.56;102767.41;5037336;28;46155;-78
2024/01/12 15:06:14;;;;;;;;;55.00;40.75;;;;;13.57;38.69;102755.88;5038150;28;45388;-81
2024/01/12 15:08:40;;;;;;;;;48.00;40.75;;;;;13.70;38.70;102777.09;5038218;28;45391;-80
2024/01/12 15:11:06;;;;;;;;;54.25;42.75;;;;;13.51;38.75;102760.56;5037063;28;45483;-78
2024/01/12 15:13:32;;;;;;;;;47.50;38.25;;;;;13.40;39.07;102744.66;5037133;28;45566;-80
2024/01/12 15:15:58;;;;;;;;;51.75;39.50;;;;;13.56;39.27;102774.78;5036766;28;45364;-81
2024/01/12 15:18:24;;;;;;;;;50.50;39.75;;;;;13.52;38.94;102774.00;5036647;28;45327;-80
2024/01/12 15:20:53;;;;;;;;;44.75;37.25;;;;;13.30;38.82;102735.03;5036666;28;45288;-79
2024/01/12 15:23:19;;;;;;;;;46.00;39.75;;;;;13.22;39.25;102735.25;5020635;28;48691;-81
2024/01/12 15:25:45;;;;;;;;;19.25;15.50;;;;;13.40;39.16;102771.59;5020583;28;45319;-82
2024/01/12 15:28:10;;;;;;;;;53.25;43.25;;;;;13.23;39.35;102746.91;5020744;28;45480;-80
2024/01/12 15:30:36;;;;;;;;;46.00;41.50;;;;;13.20;39.20;102747.84;5036843;28;45557;-81
2024/01/12 15:33:01;;;;;;;;;53.25;41.00;;;;;13.27;39.39;102759.34;5036881;28;45596;-79
2024/01/12 15:35:28;;;;;;;;;44.50;39.00;;;;;13.36;39.14;102777.09;5036884;28;45441;-81
2024/01/12 15:37:53;;;;;;;;;55.75;40.75;;;;;13.37;39.46;102774.38;5036582;28;45429;-81
2024/01/12 15:40:20;;;;;;;;;49.50;39.25;;;;;13.31;39.35;102773.63;5030727;28;48935;-82
2024/01/12 15:42:45;;;;;;;;;48.75;41.00;;;;;13.12;39.34;102760.59;5032081;28;45409;-80
2024/01/12 15:45:11;;;;;;;;;43.75;38.00;;;;;13.20;39.73;102784.66;5036866;28;45205;-81
2024/01/12 15:47:37;;;;;;;;;45.75;39.50;;;;;13.22;39.76;102777.44;5018365;28;45266;-79
2024/01/12 15:50:03;;;;;;;;;50.00;40.50;;;;;13.00;39.83;102743.84;5036128;28;45568;-82
2024/01/12 15:52:28;;;;;;;;;55.00;43.25;;;;;12.94;40.51;102733.22;5036570;28;45559;-80
2024/01/12 15:54:54;;;;;;;;;51.00;43.25;;;;;13.05;40.13;102747.31;5035661;28;45424;-82
2024/01/12 15:57:20;;;;;;;;;52.75;39.75;;;;;13.13;39.98;102769.56;5036584;28;45327;-81
2024/01/12 15:59:47;;;;;;;;;40.75;31.25;;;;;13.16;39.95;102774.91;5045034;28;45446;-80
2024/01/12 16:02:12;;;;;;;;;51.25;40.00;;;;;13.16;40.33;102778.50;5036303;28;45430;-79
2024/01/12 16:04:38;;;;;;;;;57.75;43.75;;;;;13.12;40.59;102770.47;5037116;28;45330;-80
2024/01/12 16:07:03;;;;;;;;;43.00;37.50;;;;;13.21;40.33;102773.88;5036529;28;45314;-80
2024/01/12 16:09:29;;;;;;;;;55.75;41.50;;;;;12.95;40.13;102733.19;5018583;28;49341;-83
2024/01/12 16:11:54;;;;;;;;;44.50;38.25;;;;;12.95;40.24;102722.41;5032736;28;45411;-81
2024/01/12 16:14:20;;;;;;;;;45.00;40.50;;;;;13.08;40.45;102750.84;5036414;28;45390;-80
2024/01/12 16:16:45;;;;;;;;;48.75;42.50;;;;;13.19;40.46;102766.72;5036509;28;45719;-80
2024/01/12 16:19:11;;;;;;;;;54.25;41.50;;;;;13.16;40.31;102769.53;5035890;28;45423;-80
2024/01/12 16:21:36;;;;;;;;;51.00;43.25;;;;;12.94;40.53;102735.91;5035424;28;46370;-81
2024/01/12 16:24:02;;;;;;;;;51.50;39.00;;;;;13.02;40.25;102752.75;5017720;28;45827;-80
2024/01/12 16:26:28;;;;;;;;;54.25;40.75;;;;;13.00;40.59;102765.41;5035892;28;45785;-81
2024/01/12 16:28:55;;;;;;;;;42.25;37.50;;;;;12.94;40.77;102770.91;5036315;28;45410;-81
2024/01/12 16:31:21;;;;;;;;;52.50;42.00;;;;;12.96;40.76;102778.03;5036712;28;45597;-82
2024/01/12 16:33:46;;;;;;;;;48.75;41.00;;;;;12.85;40.64;102758.53;5036291;28;45438;-81
2024/01/12 16:36:11;;;;;;;;;53.00;42.00;;;;;12.92;40.84;102770.97;5036298;28;45607;-82